Kennedale's Hourly Summary for Wednesday, July 11, 2018
Hour Temp
(f)
RH
(%)
Solar Rad.
(MJ/m2)
Rainfall
(in)
Wind
(mph)
7/11/2018 12:00 AM 78 77 0 0 3.28
7/11/2018 1:00 AM 77 79 0 0 1.01
7/11/2018 2:00 AM 75 82 0 0 2.63
7/11/2018 3:00 AM 75 83 0 0 2.13
7/11/2018 4:00 AM 74 85 0 0 2.07
7/11/2018 5:00 AM 74 87 0 0 2.74
7/11/2018 6:00 AM 74 88 0.01 0 2.63
7/11/2018 7:00 AM 74 88 0.14 0 2.85
7/11/2018 8:00 AM 77 82 0.42 0 3.8
7/11/2018 9:00 AM 83 67 1.37 0 5.71
7/11/2018 10:00 AM 87 55 1.73 0 5.98
7/11/2018 11:00 AM 91 46 2.37 0 4.42
7/11/2018 12:00 PM 91 44 1.05 0 3.13
7/11/2018 1:00 PM 91 42 1.73 0 6.99
7/11/2018 2:00 PM 91 42 0.89 0 3.86
7/11/2018 3:00 PM 88 51 1.08 0 7.16
7/11/2018 4:00 PM 90 49 1.36 0 6.32
7/11/2018 5:00 PM 92 45 1.32 0 7.33
7/11/2018 6:00 PM 94 40 1.06 0 6.6
7/11/2018 7:00 PM 93 40 0.51 0 6.71
7/11/2018 8:00 PM 91 42 0.14 0 4.81
7/11/2018 9:00 PM 88 47 0 0 3.41
7/11/2018 10:00 PM 86 55 0 0 5.09
7/11/2018 11:00 PM 83 61 0 0 4.36
Data Summary 84 61 15.18 0.00 4.38